createdAt,value
2023-04-22T00:02:23.292Z,152.32
2023-04-22T00:04:52.758Z,159.35
2023-04-22T00:07:20.643Z,167.40
2023-04-22T00:09:48.342Z,169.10
2023-04-22T00:12:16.110Z,178.52
2023-04-22T00:14:43.828Z,188.18
2023-04-22T00:17:11.531Z,192.85
2023-04-22T00:19:39.480Z,199.82
2023-04-22T00:22:08.666Z,219.35
2023-04-22T00:24:36.382Z,213.63
2023-04-22T00:27:04.300Z,220.90
2023-04-22T00:29:31.990Z,230.10
2023-04-22T00:31:59.661Z,238.48
2023-04-22T00:34:27.375Z,245.15
2023-04-22T00:36:55.121Z,254.32
2023-04-22T00:39:24.131Z,259.52
2023-04-22T00:41:51.795Z,272.13
2023-04-22T00:44:19.517Z,269.45
2023-04-22T00:46:47.213Z,282.60
2023-04-22T00:49:14.907Z,287.58
2023-04-22T00:51:44.047Z,294.27
2023-04-22T00:54:11.709Z,306.13
2023-04-22T00:56:40.742Z,306.80
2023-04-22T00:59:08.806Z,320.50
2023-04-22T01:01:36.847Z,319.67
2023-04-22T01:04:04.962Z,331.58
2023-04-22T01:06:33.212Z,334.90
2023-04-22T01:09:01.017Z,335.13
2023-04-22T01:11:28.718Z,342.75
2023-04-22T01:13:57.823Z,351.05
2023-04-22T01:16:25.841Z,349.00
2023-04-22T01:18:54.199Z,351.55
2023-04-22T01:21:22.685Z,361.17
2023-04-22T01:23:51.962Z,368.20
2023-04-22T01:26:19.652Z,372.95
2023-04-22T01:28:47.385Z,375.60
2023-04-22T01:31:15.051Z,388.85
2023-04-22T01:33:44.216Z,388.85
2023-04-22T01:36:13.269Z,391.15
2023-04-22T01:38:41.244Z,399.17
2023-04-22T01:41:10.260Z,399.33
2023-04-22T01:43:37.979Z,406.65
2023-04-22T01:46:05.891Z,402.25
2023-04-22T01:48:33.599Z,407.42
2023-04-22T01:51:01.353Z,406.27
2023-04-22T01:53:29.112Z,410.63
2023-04-22T01:55:56.845Z,416.05
2023-04-22T01:58:25.950Z,419.08
2023-04-22T02:00:53.662Z,423.13
2023-04-22T02:03:21.457Z,419.88
2023-04-22T02:05:49.207Z,430.02
2023-04-22T02:08:17.396Z,427.58
2023-04-22T02:10:45.888Z,423.55
2023-04-22T02:13:13.865Z,426.42
2023-04-22T02:15:42.961Z,432.90
2023-04-22T02:18:10.904Z,431.77
2023-04-22T02:20:38.701Z,433.92
2023-04-22T02:23:06.966Z,431.05
2023-04-22T02:25:34.696Z,434.13
2023-04-22T02:28:02.387Z,427.77
2023-04-22T02:30:30.285Z,424.58
2023-04-22T02:32:59.354Z,426.92
2023-04-22T02:35:27.619Z,437.85
2023-04-22T02:37:55.267Z,427.73
2023-04-22T02:40:25.656Z,426.80
2023-04-22T02:42:53.368Z,425.80
2023-04-22T02:45:22.642Z,424.23
2023-04-22T02:47:50.390Z,423.73
2023-04-22T02:50:19.638Z,417.48
2023-04-22T02:52:47.306Z,420.00
2023-04-22T02:55:14.976Z,409.90
2023-04-22T02:57:42.694Z,408.15
2023-04-22T03:00:11.403Z,408.33
2023-04-22T03:02:39.449Z,406.23
2023-04-22T03:05:11.543Z,405.33
2023-04-22T03:07:41.025Z,401.58
2023-04-22T03:10:09.799Z,400.17
2023-04-22T03:12:37.518Z,392.75
2023-04-22T03:15:06.090Z,397.50
2023-04-22T03:17:34.624Z,392.75
2023-04-22T03:20:06.382Z,385.90
2023-04-22T03:22:34.619Z,384.27
2023-04-22T03:25:06.272Z,387.60
2023-04-22T03:27:34.232Z,383.35
2023-04-22T03:30:01.931Z,375.10
2023-04-22T03:32:30.575Z,378.80
2023-04-22T03:35:17.328Z,366.35
2023-04-22T03:37:48.146Z,372.10
2023-04-22T03:40:21.389Z,365.75
2023-04-22T03:42:50.225Z,364.95
2023-04-22T03:45:20.745Z,357.15
2023-04-22T03:47:56.550Z,354.45
2023-04-22T03:50:32.688Z,352.95
2023-04-22T03:53:01.881Z,344.38
2023-04-22T03:55:31.012Z,344.25
2023-04-22T03:57:59.059Z,342.20
2023-04-22T04:00:27.292Z,335.70
2023-04-22T04:03:07.913Z,334.83
2023-04-22T04:05:36.451Z,328.13
2023-04-22T04:08:04.427Z,328.23
2023-04-22T04:10:34.394Z,328.25
2023-04-22T04:13:03.582Z,325.65
2023-04-22T04:15:38.837Z,321.50
2023-04-22T04:18:07.455Z,317.33
2023-04-22T04:20:35.227Z,310.35
2023-04-22T04:23:02.939Z,312.65
2023-04-22T04:25:37.536Z,306.08
2023-04-22T04:28:09.251Z,299.77
2023-04-22T04:30:38.189Z,298.73
2023-04-22T04:33:07.271Z,288.15
2023-04-22T04:35:37.486Z,288.55
2023-04-22T04:38:06.622Z,288.10
2023-04-22T04:40:37.017Z,287.73
2023-04-22T04:43:20.220Z,286.20
2023-04-22T04:45:53.316Z,275.05
2023-04-22T04:48:27.902Z,276.05
2023-04-22T04:51:02.095Z,277.80
2023-04-22T04:53:33.071Z,272.58
2023-04-22T04:56:00.792Z,267.67
2023-04-22T04:58:30.754Z,264.50
2023-04-22T05:01:12.504Z,262.70
2023-04-22T05:03:41.875Z,258.58
2023-04-22T05:06:10.525Z,254.43
2023-04-22T05:08:40.159Z,252.27
2023-04-22T05:11:10.379Z,249.10
2023-04-22T05:13:39.706Z,244.20
2023-04-22T05:16:10.571Z,246.77
2023-04-22T05:18:40.109Z,247.63
2023-04-22T05:21:10.208Z,236.77
2023-04-22T05:23:37.918Z,232.93
2023-04-22T05:26:07.116Z,231.40
2023-04-22T05:28:37.050Z,228.05
2023-04-22T05:31:07.496Z,222.85
2023-04-22T05:33:35.526Z,219.07
2023-04-22T05:36:03.234Z,223.85
2023-04-22T05:38:30.926Z,213.57
2023-04-22T05:40:58.698Z,214.13
2023-04-22T05:43:26.762Z,211.10
2023-04-22T05:46:01.234Z,201.93
2023-04-22T05:48:30.252Z,204.32
2023-04-22T05:51:01.371Z,200.07
2023-04-22T05:53:30.820Z,197.68
2023-04-22T05:56:00.912Z,192.43
2023-04-22T05:58:28.584Z,187.98
2023-04-22T06:01:00.993Z,186.32
2023-04-22T06:04:10.125Z,185.98
2023-04-22T06:06:38.271Z,179.05
2023-04-22T06:09:07.037Z,174.80
2023-04-22T06:11:34.714Z,174.20
2023-04-22T06:14:02.528Z,171.55
2023-04-22T06:16:31.576Z,165.20
2023-04-22T06:18:59.651Z,165.38
2023-04-22T06:21:29.477Z,161.65
2023-04-22T06:23:57.939Z,157.45
2023-04-22T06:26:25.629Z,156.57
2023-04-22T06:28:53.354Z,154.32
2023-04-22T06:31:21.858Z,155.20
2023-04-22T06:33:49.953Z,153.48
2023-04-22T06:36:19.218Z,147.50
2023-04-22T06:38:55.149Z,150.93
2023-04-22T06:41:41.482Z,144.40
2023-04-22T06:44:22.906Z,142.43
2023-04-22T06:47:06.255Z,138.75
2023-04-22T06:49:44.918Z,135.50
2023-04-22T06:52:25.554Z,136.00
2023-04-22T06:54:58.578Z,132.93
2023-04-22T06:57:26.308Z,130.52
2023-04-22T06:59:53.961Z,128.05
2023-04-22T07:02:22.881Z,126.57
2023-04-22T07:04:50.877Z,122.15
2023-04-22T07:07:18.550Z,119.90
2023-04-22T07:09:46.290Z,119.03
2023-04-22T07:12:15.460Z,118.72
2023-04-22T07:14:44.283Z,114.93
2023-04-22T07:17:12.026Z,113.10
2023-04-22T07:19:40.061Z,111.85
2023-04-22T07:22:08.043Z,111.13
2023-04-22T07:24:35.718Z,107.45
2023-04-22T07:27:03.736Z,106.00
2023-04-22T07:29:32.769Z,105.28
2023-04-22T07:32:00.452Z,97.93
2023-04-22T07:34:28.203Z,100.05
2023-04-22T07:36:55.854Z,78.05
2023-04-22T07:39:23.724Z,67.05
2023-04-22T07:41:51.765Z,57.60
2023-04-22T07:44:21.478Z,46.92
2023-04-22T07:46:50.636Z,39.50
2023-04-22T07:49:18.300Z,54.35
2023-04-22T07:51:45.978Z,49.90
2023-04-22T07:54:13.663Z,31.88
2023-04-22T07:56:41.390Z,26.67
2023-04-22T07:59:09.129Z,28.63
2023-04-22T08:01:36.769Z,24.55
2023-04-22T08:04:05.931Z,23.20
2023-04-22T08:06:33.709Z,19.42
2023-04-22T08:09:01.401Z,15.85
2023-04-22T08:11:29.181Z,15.88
2023-04-22T08:13:56.841Z,14.43
2023-04-22T08:16:24.567Z,10.73
2023-04-22T08:18:53.032Z,13.52
2023-04-22T08:21:22.397Z,11.45
2023-04-22T08:23:50.060Z,11.82
2023-04-22T08:26:17.710Z,10.77
2023-04-22T08:28:45.367Z,7.78
2023-04-22T08:31:13.680Z,9.55
2023-04-22T08:33:41.401Z,12.70
2023-04-22T08:36:09.565Z,55.80
2023-04-22T08:38:38.607Z,8.82
2023-04-22T08:41:06.476Z,527.05
2023-04-22T08:43:34.347Z,77.05
2023-04-22T08:46:02.079Z,44.00
2023-04-22T08:48:29.798Z,49.63
2023-04-22T08:50:57.503Z,26.35
2023-04-22T08:53:25.372Z,23.40
2023-04-22T08:55:54.589Z,28.80
2023-04-22T08:58:22.491Z,26.65
2023-04-22T09:00:50.275Z,23.25
2023-04-22T09:03:18.019Z,38.92
2023-04-22T09:05:45.960Z,28.40
2023-04-22T09:08:13.662Z,24.65
2023-04-22T09:10:41.353Z,15.80
2023-04-22T09:13:10.530Z,13.48
2023-04-22T09:15:38.246Z,16.20
2023-04-22T09:18:06.376Z,13.27
2023-04-22T09:20:34.066Z,19.70
2023-04-22T09:23:03.861Z,19.73
2023-04-22T09:25:33.450Z,18.30
2023-04-22T09:28:01.852Z,11.45
2023-04-22T09:30:32.130Z,12.52
2023-04-22T09:33:00.799Z,10.23
2023-04-22T09:35:29.512Z,8.43
2023-04-22T09:37:57.274Z,8.15
2023-04-22T09:40:25.349Z,16.98
2023-04-22T09:42:53.807Z,8.30
2023-04-22T09:45:32.498Z,8.45
2023-04-22T09:48:07.117Z,11.60
2023-04-22T09:50:34.865Z,8.90
2023-04-22T09:53:04.013Z,7.60
2023-04-22T09:55:33.000Z,7.15
2023-04-22T09:58:06.287Z,8.88
2023-04-22T10:00:35.620Z,10.55
2023-04-22T10:03:03.509Z,12.63
2023-04-22T10:05:31.274Z,10.15
2023-04-22T10:07:58.995Z,6.05
2023-04-22T10:10:26.680Z,7.18
2023-04-22T10:12:54.364Z,9.75
2023-04-22T10:15:22.586Z,7.07
2023-04-22T10:17:53.179Z,10.68
2023-04-22T10:20:21.328Z,6.68
2023-04-22T10:22:49.228Z,6.57
2023-04-22T10:25:22.874Z,7.25
2023-04-22T10:27:54.311Z,5.85
2023-04-22T10:30:28.016Z,5.95
2023-04-22T10:32:57.117Z,7.70
2023-04-22T10:35:29.026Z,6.82
2023-04-22T10:37:56.886Z,4.35
2023-04-22T10:40:24.664Z,6.80
2023-04-22T10:42:53.135Z,11.48
2023-04-22T10:45:21.917Z,7.32
2023-04-22T10:47:49.615Z,5.90
2023-04-22T10:50:21.304Z,7.22
2023-04-22T10:52:51.447Z,5.05
2023-04-22T10:55:19.449Z,6.78
2023-04-22T10:57:48.253Z,4.53
2023-04-22T11:00:52.359Z,3.83
2023-04-22T11:03:26.455Z,5.53
2023-04-22T11:06:16.898Z,7.90
2023-04-22T11:08:47.915Z,10.30
2023-04-22T11:11:15.739Z,7.90
2023-04-22T11:13:44.073Z,11.77
2023-04-22T11:16:11.872Z,12.13
2023-04-22T11:18:39.659Z,9.68
2023-04-22T11:21:08.746Z,5.85
2023-04-22T11:23:37.811Z,8.20
2023-04-22T11:26:06.738Z,9.38
2023-04-22T11:28:34.683Z,6.80
2023-04-22T11:31:03.390Z,6.18
2023-04-22T11:33:31.142Z,5.50
2023-04-22T11:35:59.114Z,4.97
2023-04-22T11:38:27.007Z,7.15
2023-04-22T11:40:57.702Z,6.93
2023-04-22T11:43:25.449Z,6.40
2023-04-22T11:45:53.175Z,6.95
2023-04-22T11:48:20.906Z,27.90
2023-04-22T11:50:48.667Z,7.85
2023-04-22T11:53:17.225Z,8.85
2023-04-22T11:55:45.605Z,9.40
2023-04-22T11:58:15.345Z,6.90
2023-04-22T12:00:43.785Z,6.43
2023-04-22T12:03:15.596Z,9.05
2023-04-22T12:05:44.485Z,7.30
2023-04-22T12:08:12.765Z,6.97
2023-04-22T12:10:42.176Z,4.18
2023-04-22T12:13:10.095Z,4.35
2023-04-22T12:15:43.050Z,4.10
2023-04-22T12:18:12.492Z,5.50
2023-04-22T12:20:40.886Z,6.85
2023-04-22T12:23:14.339Z,8.13
2023-04-22T12:25:42.409Z,11.95
2023-04-22T12:28:11.143Z,6.28
2023-04-22T12:30:38.846Z,7.07
2023-04-22T12:33:07.963Z,9.95
2023-04-22T12:35:35.959Z,14.65
2023-04-22T12:38:03.713Z,7.18
2023-04-22T12:40:31.481Z,7.07
2023-04-22T12:42:59.453Z,8.65
2023-04-22T12:45:27.299Z,7.43
2023-04-22T12:47:55.353Z,9.43
2023-04-22T12:50:24.465Z,9.02
2023-04-22T12:52:52.190Z,12.68
2023-04-22T12:55:20.889Z,9.10
2023-04-22T12:57:49.509Z,10.57
2023-04-22T13:00:17.607Z,5.85
2023-04-22T13:02:46.045Z,5.13
2023-04-22T13:05:13.869Z,5.72
2023-04-22T13:07:44.325Z,7.63
2023-04-22T13:10:14.415Z,14.18
2023-04-22T13:12:42.503Z,9.95
2023-04-22T13:15:11.189Z,9.18
2023-04-22T13:17:39.026Z,14.02
2023-04-22T13:20:09.458Z,13.45
2023-04-22T13:22:37.334Z,16.30
2023-04-22T13:25:07.366Z,13.20
2023-04-22T13:27:35.042Z,10.90
2023-04-22T13:30:03.725Z,15.05
2023-04-22T13:32:31.490Z,9.73
2023-04-22T13:35:02.729Z,15.55
2023-04-22T13:37:30.735Z,11.65
2023-04-22T13:39:58.473Z,25.48
2023-04-22T13:42:27.535Z,13.40
2023-04-22T13:44:55.211Z,16.52
2023-04-22T13:47:22.894Z,12.77
2023-04-22T13:49:50.673Z,11.02
2023-04-22T13:52:18.398Z,18.85
2023-04-22T13:54:46.179Z,17.10
2023-04-22T13:57:13.826Z,11.30
2023-04-22T13:59:43.327Z,10.88
2023-04-22T14:02:11.074Z,12.15
2023-04-22T14:04:38.774Z,13.35
2023-04-22T14:07:06.513Z,11.30
2023-04-22T14:09:34.656Z,12.13
2023-04-22T14:12:03.361Z,12.32
2023-04-22T14:14:31.127Z,50.13
2023-04-22T14:17:00.270Z,21.48
2023-04-22T14:19:30.152Z,11.52
2023-04-22T14:21:57.982Z,9.30
2023-04-22T14:24:25.778Z,12.35
2023-04-22T14:26:53.473Z,40.55
2023-04-22T14:29:21.280Z,29.90
2023-04-22T14:31:49.702Z,8.80
2023-04-22T14:34:18.765Z,11.95
2023-04-22T14:36:46.478Z,16.00
2023-04-22T14:39:14.186Z,7.65
2023-04-22T14:41:41.912Z,25.73
2023-04-22T14:44:09.595Z,11.93
2023-04-22T14:46:37.366Z,7.25
2023-04-22T14:49:05.255Z,5.72
2023-04-22T14:51:35.385Z,10.48
2023-04-22T14:54:03.474Z,5.85
2023-04-22T14:56:31.298Z,5.85
2023-04-22T14:58:59.070Z,6.50
2023-04-22T15:01:26.793Z,7.85
2023-04-22T15:03:54.690Z,15.55
2023-04-22T15:06:23.532Z,6.38
2023-04-22T15:08:52.718Z,4.55
2023-04-22T15:11:20.408Z,13.18
2023-04-22T15:13:48.072Z,5.22
2023-04-22T15:16:15.792Z,9.35
2023-04-22T15:18:43.653Z,7.65
2023-04-22T15:21:11.337Z,22.00
2023-04-22T15:23:39.071Z,30.40
2023-04-22T15:26:08.163Z,15.52
2023-04-22T15:28:35.866Z,14.55
2023-04-22T15:31:03.882Z,14.30
2023-04-22T15:33:31.636Z,24.58
2023-04-22T15:35:59.316Z,14.50
2023-04-22T15:38:26.998Z,16.10
2023-04-22T15:40:54.682Z,11.02
2023-04-22T15:43:23.743Z,18.65
2023-04-22T15:45:51.454Z,13.68
2023-04-22T15:48:19.119Z,48.28
2023-04-22T15:50:46.874Z,22.92
2023-04-22T15:53:14.529Z,17.90
2023-04-22T15:55:42.199Z,13.52
2023-04-22T15:58:09.951Z,8.85
2023-04-22T16:00:39.012Z,8.23
2023-04-22T16:03:06.749Z,19.15
2023-04-22T16:05:34.687Z,10.88
2023-04-22T16:08:02.498Z,25.75
2023-04-22T16:10:30.144Z,21.88
2023-04-22T16:12:57.832Z,7.88
2023-04-22T16:15:26.196Z,6.15
2023-04-22T16:17:55.366Z,10.10
2023-04-22T16:20:23.238Z,7.63
2023-04-22T16:22:50.949Z,25.17
2023-04-22T16:25:18.821Z,16.05
2023-04-22T16:27:46.934Z,14.68
2023-04-22T16:30:16.224Z,12.65
2023-04-22T16:32:44.095Z,27.65
2023-04-22T16:35:13.124Z,13.60
2023-04-22T16:37:40.856Z,24.25
2023-04-22T16:40:09.533Z,12.75
2023-04-22T16:42:37.227Z,38.00
2023-04-22T16:45:05.641Z,14.27
2023-04-22T16:47:33.372Z,12.68
2023-04-22T16:50:01.085Z,11.25
2023-04-22T16:52:31.054Z,17.85
2023-04-22T16:54:58.732Z,311.73
2023-04-22T16:57:26.381Z,28.58
2023-04-22T16:59:54.061Z,41.40
2023-04-22T17:02:21.847Z,96.78
2023-04-22T17:04:49.720Z,24.77
2023-04-22T17:07:17.517Z,24.00
2023-04-22T17:09:46.530Z,26.65
2023-04-22T17:12:14.226Z,33.55
2023-04-22T17:14:41.909Z,23.25
2023-04-22T17:17:09.613Z,19.92
2023-04-22T17:19:37.287Z,22.83
2023-04-22T17:22:05.097Z,27.08
2023-04-22T17:24:32.813Z,21.00
2023-04-22T17:27:02.813Z,23.23
2023-04-22T17:29:30.560Z,17.60
2023-04-22T17:31:58.493Z,14.25
2023-04-22T17:34:26.284Z,17.20
2023-04-22T17:36:54.016Z,15.35
2023-04-22T17:39:21.992Z,12.32
2023-04-22T17:41:49.663Z,14.40
2023-04-22T17:44:18.684Z,14.25
2023-04-22T17:46:46.485Z,12.95
2023-04-22T17:49:14.180Z,11.93
2023-04-22T17:51:41.903Z,11.23
2023-04-22T17:54:09.676Z,11.63
2023-04-22T17:56:37.433Z,6.05
2023-04-22T17:59:05.264Z,12.32
2023-04-22T18:01:34.257Z,11.68
2023-04-22T18:04:02.283Z,10.80
2023-04-22T18:06:30.548Z,12.10
2023-04-22T18:08:58.235Z,7.93
2023-04-22T18:11:27.779Z,8.15
2023-04-22T18:13:55.569Z,5.45
2023-04-22T18:16:23.293Z,7.60
2023-04-22T18:18:52.505Z,7.13
2023-04-22T18:21:20.383Z,12.43
2023-04-22T18:23:48.126Z,8.75
2023-04-22T18:26:15.869Z,10.52
2023-04-22T18:28:44.526Z,6.32
2023-04-22T18:31:12.278Z,7.07
2023-04-22T18:33:40.041Z,6.95
2023-04-22T18:36:09.519Z,7.95
2023-04-22T18:38:38.537Z,7.70
2023-04-22T18:41:06.795Z,7.25
2023-04-22T18:43:34.571Z,6.25
2023-04-22T18:46:02.241Z,6.93
2023-04-22T18:48:29.962Z,6.70
2023-04-22T18:50:57.623Z,12.50
2023-04-22T18:53:26.689Z,7.18
2023-04-22T18:55:54.405Z,5.57
2023-04-22T18:58:23.100Z,6.57
2023-04-22T19:00:51.414Z,7.43
2023-04-22T19:03:19.460Z,5.43
2023-04-22T19:05:47.321Z,5.00
2023-04-22T19:08:15.000Z,5.80
2023-04-22T19:10:44.072Z,4.30
2023-04-22T19:13:18.857Z,5.85
2023-04-22T19:15:56.876Z,5.28
2023-04-22T19:18:24.636Z,5.05
2023-04-22T19:20:52.394Z,5.38
2023-04-22T19:23:20.195Z,6.60
2023-04-22T19:25:49.263Z,3.58
2023-04-22T19:28:16.965Z,4.65
2023-04-22T19:30:44.705Z,5.05
2023-04-22T19:33:12.433Z,5.47
2023-04-22T19:35:40.123Z,4.20
2023-04-22T19:38:07.820Z,6.15
2023-04-22T19:40:35.761Z,4.28
2023-04-22T19:43:04.916Z,4.72
2023-04-22T19:45:32.639Z,5.15
2023-04-22T19:48:00.927Z,3.72
2023-04-22T19:50:29.079Z,3.92
2023-04-22T19:52:58.287Z,3.83
2023-04-22T19:55:26.536Z,4.13
2023-04-22T19:57:54.429Z,4.13
2023-04-22T20:00:23.634Z,5.25
2023-04-22T20:02:51.946Z,4.07
2023-04-22T20:05:20.926Z,4.40
2023-04-22T20:07:48.698Z,3.40
2023-04-22T20:10:16.433Z,5.10
2023-04-22T20:12:44.944Z,4.90
2023-04-22T20:15:13.404Z,3.53
2023-04-22T20:17:43.533Z,3.92
2023-04-22T20:20:14.935Z,3.28
2023-04-22T20:22:43.056Z,5.80
2023-04-22T20:25:13.713Z,3.92
2023-04-22T20:27:41.609Z,5.13
2023-04-22T20:30:10.264Z,3.67
2023-04-22T20:32:38.272Z,3.22
2023-04-22T20:35:11.197Z,3.33
2023-04-22T20:37:39.630Z,3.58
2023-04-22T20:40:09.179Z,3.92
2023-04-22T20:42:37.590Z,4.50
2023-04-22T20:45:06.573Z,4.28
2023-04-22T20:47:35.786Z,4.25
2023-04-22T20:50:04.202Z,4.80
2023-04-22T20:52:33.237Z,3.30
2023-04-22T20:55:00.954Z,3.50
2023-04-22T20:57:28.649Z,3.70
2023-04-22T20:59:56.352Z,4.22
2023-04-22T21:02:24.574Z,4.82
2023-04-22T21:04:52.429Z,3.33
2023-04-22T21:07:20.446Z,3.63
2023-04-22T21:09:50.681Z,3.75
2023-04-22T21:12:19.677Z,3.50
2023-04-22T21:14:47.969Z,3.55
2023-04-22T21:17:19.218Z,3.95
2023-04-22T21:19:48.519Z,3.75
2023-04-22T21:22:16.734Z,3.70
2023-04-22T21:24:44.451Z,3.80
2023-04-22T21:27:13.480Z,3.25
2023-04-22T21:29:41.694Z,3.20
2023-04-22T21:32:10.081Z,3.13
2023-04-22T21:34:38.273Z,3.15
2023-04-22T21:37:06.169Z,3.45
2023-04-22T21:39:33.892Z,2.95
2023-04-22T21:42:02.378Z,3.13
2023-04-22T21:44:31.493Z,3.03
2023-04-22T21:46:59.187Z,2.85
2023-04-22T21:49:26.889Z,3.10
2023-04-22T21:51:54.891Z,2.65
2023-04-22T21:54:22.605Z,3.72
2023-04-22T21:56:50.656Z,2.85
2023-04-22T21:59:18.570Z,2.90
2023-04-22T22:01:47.767Z,2.97
2023-04-22T22:04:16.427Z,3.05
2023-04-22T22:06:44.605Z,3.10
2023-04-22T22:09:12.531Z,3.35
2023-04-22T22:11:40.410Z,2.97
2023-04-22T22:14:08.114Z,3.47
2023-04-22T22:16:35.831Z,2.78
2023-04-22T22:19:05.270Z,2.90
2023-04-22T22:21:33.751Z,3.05
2023-04-22T22:24:01.532Z,3.40
2023-04-22T22:26:29.305Z,3.03
2023-04-22T22:28:56.994Z,2.90
2023-04-22T22:31:24.704Z,3.42
2023-04-22T22:33:52.636Z,3.22
2023-04-22T22:36:21.738Z,3.70
2023-04-22T22:38:49.449Z,3.92
2023-04-22T22:41:17.142Z,4.47
2023-04-22T22:43:44.817Z,4.38
2023-04-22T22:46:12.559Z,4.25
2023-04-22T22:48:40.618Z,4.93
2023-04-22T22:51:09.354Z,5.35
2023-04-22T22:53:38.507Z,6.25
2023-04-22T22:56:06.627Z,6.53
2023-04-22T22:58:36.108Z,7.05
2023-04-22T23:01:05.029Z,8.38
2023-04-22T23:03:32.878Z,9.40
2023-04-22T23:06:00.705Z,10.57
2023-04-22T23:08:28.392Z,11.80
2023-04-22T23:10:57.377Z,13.45
2023-04-22T23:13:25.058Z,14.68
2023-04-22T23:15:52.721Z,16.27
2023-04-22T23:18:20.576Z,18.20
2023-04-22T23:20:48.598Z,19.67
2023-04-22T23:23:16.970Z,22.70
2023-04-22T23:25:44.859Z,23.40
2023-04-22T23:28:14.579Z,25.58
2023-04-22T23:30:42.527Z,27.63
2023-04-22T23:33:10.329Z,31.55
2023-04-22T23:35:38.016Z,31.73
2023-04-22T23:38:06.474Z,36.13
2023-04-22T23:40:34.150Z,35.45
2023-04-22T23:43:01.807Z,38.10
2023-04-22T23:45:30.811Z,39.35
2023-04-22T23:47:58.505Z,40.50
2023-04-22T23:50:26.201Z,41.92
2023-04-22T23:52:53.902Z,44.05
2023-04-22T23:55:23.036Z,44.38
2023-04-22T23:57:51.574Z,46.53
